Latest Weather Observations for Ocean Reef

IDW60901

Issued at 9:41 am WST Saturday 29 April 2017 (issued every 10 minutes, with the page automatically refreshed every 10 minutes)

About weather observations | Map of Perth area stations | Latest observations for Perth area | Other Formats
Station Details ID: 009214 Name: OCEAN REEF Lat: -31.76 Lon: 115.73 Height: 10.0 m
Data from the previous 72 hours. | See also: Recent months at Ocean Reef
Date/Time
WST
Temp
°C
App
Temp
°C
Dew
Point
°C
Rel
Hum
%
Delta-T
°C
Wind Press
QNH
hPa
Press
MSL
hPa
Rain since
9am
mm
Dir  Spd
km/h
Gust
km/h
Spd
kts
Gust
kts
29/09:30am - - - - - ENE 22 30 12 16 - - -
29/09:00am - - - - - ENE 24 33 13 18 - - -
29/08:30am - - - - - ENE 20 26 11 14 - - -
29/08:00am - - - - - ENE 20 26 11 14 - - -
29/07:30am - - - - - ENE 20 28 11 15 - - -
29/07:00am - - - - - ENE 20 26 11 14 - - -
29/06:30am - - - - - E 17 22 9 12 - - -
29/06:00am - - - - - E 13 15 7 8 - - -
29/05:30am - - - - - E 13 17 7 9 - - -
29/05:00am - - - - - E 11 13 6 7 - - -
29/04:30am - - - - - E 11 15 6 8 - - -
29/04:00am - - - - - SE 7 9 4 5 - - -
29/03:30am - - - - - ESE 7 9 4 5 - - -
29/03:00am - - - - - E 9 13 5 7 - - -
29/02:30am - - - - - E 15 17 8 9 - - -
29/02:00am - - - - - E 13 15 7 8 - - -
29/01:30am - - - - - ESE 7 9 4 5 - - -
29/01:00am - - - - - ESE 9 11 5 6 - - -
29/12:30am - - - - - E 15 17 8 9 - - -
29/12:00am - - - - - ESE 9 13 5 7 - - -
 
Date/Time
WST
Temp
°C
App
Temp
°C
Dew
Point
°C
Rel
Hum
%
Delta-T
°C
Wind Press
QNH
hPa
Press
MSL
hPa
Rain since
9am
mm
Dir  Spd
km/h
Gust
km/h
Spd
kts
Gust
kts
28/11:30pm - - - - - SE 9 13 5 7 - - -
28/11:00pm - - - - - ESE 9 11 5 6 - - -
28/10:30pm - - - - - S 6 9 3 5 - - -
28/10:00pm - - - - - SE 11 13 6 7 - - -
28/09:30pm - - - - - SSE 13 15 7 8 - - -
28/09:00pm - - - - - SSE 7 9 4 5 - - -
28/08:30pm - - - - - SE 11 11 6 6 - - -
28/08:00pm - - - - - SE 13 17 7 9 - - -
28/07:30pm - - - - - SE 13 17 7 9 - - -
28/07:00pm - - - - - SE 11 13 6 7 - - -
28/06:30pm - - - - - SSE 13 17 7 9 - - -
28/06:00pm - - - - - SSE 17 26 9 14 - - -
28/05:30pm - - - - - S 24 30 13 16 - - -
28/05:00pm - - - - - S 22 28 12 15 - - -
28/04:30pm - - - - - S 20 28 11 15 - - -
28/04:00pm - - - - - S 26 32 14 17 - - -
28/03:30pm - - - - - S 24 28 13 15 - - -
28/03:00pm - - - - - SSW 24 28 13 15 - - -
28/02:30pm - - - - - SW 20 26 11 14 - - -
28/02:00pm - - - - - SW 20 26 11 14 - - -
28/01:30pm - - - - - SW 19 24 10 13 - - -
28/01:00pm - - - - - SW 17 20 9 11 - - -
28/12:30pm - - - - - SW 13 17 7 9 - - -
28/12:00pm - - - - - WSW 15 19 8 10 - - -
28/11:30am - - - - - WSW 11 13 6 7 - - -
28/11:00am - - - - - W 9 11 5 6 - - -
28/10:30am - - - - - WSW 7 9 4 5 - - -
28/10:00am - - - - - NE 13 17 7 9 - - -
28/09:30am - - - - - NE 17 22 9 12 - - -
28/09:00am - - - - - ENE 17 24 9 13 - - -
28/08:30am - - - - - ENE 22 28 12 15 - - -
28/08:00am - - - - - ENE 20 24 11 13 - - -
28/07:30am - - - - - ENE 22 26 12 14 - - -
28/07:00am - - - - - ENE 22 26 12 14 - - -
28/06:30am - - - - - ENE 22 26 12 14 - - -
28/06:00am - - - - - ENE 17 22 9 12 - - -
28/05:30am - - - - - NE 2 9 1 5 - - -
28/05:00am - - - - - ESE 2 6 1 3 - - -
28/04:30am - - - - - ESE 9 9 5 5 - - -
28/04:00am - - - - - E 11 13 6 7 - - -
28/03:30am - - - - - E 11 15 6 8 - - -
28/03:00am - - - - - SE 6 7 3 4 - - -
28/02:30am - - - - - ESE 6 9 3 5 - - -
28/02:00am - - - - - CALM 0 0 0 0 - - -
28/01:30am - - - - - NE 4 7 2 4 - - -
28/01:00am - - - - - E 2 6 1 3 - - -
28/12:30am - - - - - ESE 6 11 3 6 - - -
28/12:00am - - - - - SE 13 15 7 8 - - -
 
Date/Time
WST
Temp
°C
App
Temp
°C
Dew
Point
°C
Rel
Hum
%
Delta-T
°C
Wind Press
QNH
hPa
Press
MSL
hPa
Rain since
9am
mm
Dir  Spd
km/h
Gust
km/h
Spd
kts
Gust
kts
27/11:30pm - - - - - SE 13 15 7 8 - - -
27/11:00pm - - - - - ESE 11 13 6 7 - - -
27/10:30pm - - - - - SSE 13 17 7 9 - - -
27/10:00pm - - - - - SSE 13 17 7 9 - - -
27/09:30pm - - - - - SSE 15 20 8 11 - - -
27/09:00pm - - - - - SSE 15 19 8 10 - - -
27/08:30pm - - - - - SSE 17 22 9 12 - - -
27/08:00pm - - - - - SSE 15 20 8 11 - - -
27/07:30pm - - - - - SSE 17 22 9 12 - - -
27/07:00pm - - - - - SSE 20 26 11 14 - - -
27/06:30pm - - - - - S 30 35 16 19 - - -
27/06:00pm - - - - - S 26 33 14 18 - - -
27/05:30pm - - - - - S 26 32 14 17 - - -
27/05:00pm - - - - - S 22 28 12 15 - - -
27/04:30pm - - - - - SSW 20 24 11 13 - - -
27/04:00pm - - - - - SSW 17 19 9 10 - - -
27/03:30pm - - - - - SSW 19 20 10 11 - - -
27/03:00pm - - - - - SSW 15 17 8 9 - - -
27/02:30pm - - - - - SSW 13 17 7 9 - - -
27/02:00pm - - - - - SW 15 17 8 9 - - -
27/01:30pm - - - - - SSW 15 17 8 9 - - -
27/01:00pm - - - - - SSW 17 19 9 10 - - -
27/12:30pm - - - - - SSW 13 13 7 7 - - -
27/12:00pm - - - - - SSW 11 11 6 6 - - -
27/11:30am - - - - - SSW 11 13 6 7 - - -
27/11:00am - - - - - SW 11 13 6 7 - - -
27/10:30am - - - - - W 9 11 5 6 - - -
27/10:00am - - - - - ENE 9 15 5 8 - - -
27/09:30am - - - - - NE 9 13 5 7 - - -
27/09:00am - - - - - E 9 11 5 6 - - -
27/08:30am - - - - - SSE 4 7 2 4 - - -
27/08:00am - - - - - SSE 9 11 5 6 - - -
27/07:30am - - - - - SSE 7 9 4 5 - - -
27/07:00am - - - - - SE 4 7 2 4 - - -
27/06:30am - - - - - CALM 0 0 0 0 - - -
27/06:00am - - - - - SE 7 9 4 5 - - -
27/05:30am - - - - - E 17 22 9 12 - - -
27/05:00am - - - - - E 19 22 10 12 - - -
27/04:30am - - - - - E 15 19 8 10 - - -
27/04:00am - - - - - E 13 17 7 9 - - -
27/03:30am - - - - - E 9 13 5 7 - - -
27/03:00am - - - - - SE 9 11 5 6 - - -
27/02:30am - - - - - SE 7 9 4 5 - - -
27/02:00am - - - - - SE 7 9 4 5 - - -
27/01:30am - - - - - SSE 9 11 5 6 - - -
27/01:00am - - - - - SE 9 13 5 7 - - -
27/12:30am - - - - - SSE 9 9 5 5 - - -
27/12:00am - - - - - SSE 9 11 5 6 - - -
 
Date/Time
WST
Temp
°C
App
Temp
°C
Dew
Point
°C
Rel
Hum
%
Delta-T
°C
Wind Press
QNH
hPa
Press
MSL
hPa
Rain since
9am
mm
Dir  Spd
km/h
Gust
km/h
Spd
kts
Gust
kts
26/11:30pm - - - - - SSE 11 11 6 6 - - -
26/11:00pm - - - - - SE 13 15 7 8 - - -
26/10:30pm - - - - - SSE 13 17 7 9 - - -
26/10:00pm - - - - - SSE 15 19 8 10 - - -
26/09:30pm - - - - - SSE 15 17 8 9 - - -
26/09:00pm - - - - - SSE 13 17 7 9 - - -
26/08:30pm - - - - - SSE 15 19 8 10 - - -
26/08:00pm - - - - - SSE 15 19 8 10 - - -
26/07:30pm - - - - - SSE 15 19 8 10 - - -
26/07:00pm - - - - - SSE 17 24 9 13 - - -
26/06:30pm - - - - - S 28 35 15 19 - - -
26/06:00pm - - - - - S 28 37 15 20 - - -
26/05:30pm - - - - - S 32 37 17 20 - - -
26/05:00pm - - - - - S 30 37 16 20 - - -
26/04:30pm - - - - - S 30 37 16 20 - - -
26/04:00pm - - - - - S 32 39 17 21 - - -
26/03:30pm - - - - - S 32 37 17 20 - - -
26/03:00pm - - - - - SSW 30 35 16 19 - - -
26/02:30pm - - - - - SSW 28 33 15 18 - - -
26/02:00pm - - - - - SSW 28 32 15 17 - - -
26/01:30pm - - - - - SSW 24 32 13 17 - - -
26/01:00pm - - - - - SSW 20 26 11 14 - - -
26/12:30pm - - - - - SW 19 22 10 12 - - -
26/12:00pm - - - - - SW 17 20 9 11 - - -
26/11:30am - - - - - SW 11 13 6 7 - - -
26/11:00am - - - - - SW 6 9 3 5 - - -
26/10:30am - - - - - E 11 17 6 9 - - -
26/10:00am - - - - - E 19 26 10 14 - - -

Latest Capital City Observations: Canberra | Sydney | Melbourne | Brisbane | Adelaide | Perth | Hobart | Darwin

Other Formats:

Comma delimited format used in spreadsheet applications
http://www.bom.gov.au/fwo/IDW60901/IDW60901.94607.axf

JavaScript Object Notation format (JSON) in row-major order
http://www.bom.gov.au/fwo/IDW60901/IDW60901.94607.json